Time;durP1;ratioP1;P1;durP2;ratioP2;P2;SDS_P1;SDS_P2;PMS_P1;PMS_P2;Temp;Humidity;BMP_temperature;BMP_pressure;BME280_temperature;BME280_humidity;BME280_pressure;Samples;Min_cycle;Max_cycle;Signal;HPM_P1;HPM_P2
2022/03/08 00:00:00;;;;;;;17.33;8.87;;;0.40;99.90;;;;;;5077740;28;20203;-64
2022/03/08 00:02:26;;;;;;;9.03;7.83;;;0.30;99.90;;;;;;5093197;28;20448;-65
2022/03/08 00:04:52;;;;;;;12.23;8.83;;;0.40;99.90;;;;;;5088966;28;20277;-71
2022/03/08 00:07:17;;;;;;;10.97;8.53;;;0.30;99.90;;;;;;5073141;28;20396;-70
2022/03/08 00:09:46;;;;;;;8.77;7.40;;;0.30;99.90;;;;;;5073184;28;20243;-64
2022/03/08 00:12:11;;;;;;;8.80;7.95;;;0.30;99.90;;;;;;5092969;28;20190;-64
2022/03/08 00:14:37;;;;;;;12.63;8.40;;;0.40;99.90;;;;;;5088976;28;20174;-66
2022/03/08 00:17:03;;;;;;;10.00;7.53;;;0.40;99.90;;;;;;5074050;28;20202;-72
2022/03/08 00:19:29;;;;;;;8.82;8.02;;;0.40;99.90;;;;;;5077737;28;20184;-64
2022/03/08 00:21:55;;;;;;;9.83;7.70;;;0.30;99.90;;;;;;5096910;28;20287;-70
2022/03/08 00:24:21;;;;;;;8.75;7.32;;;0.30;99.90;;;;;;5095481;28;20830;-66
2022/03/08 00:26:47;;;;;;;10.37;8.53;;;0.30;99.90;;;;;;5077382;28;20170;-70
2022/03/08 00:29:12;;;;;;;11.90;7.30;;;0.30;99.90;;;;;;5077619;28;20170;-64
2022/03/08 00:31:38;;;;;;;6.43;5.90;;;0.30;99.90;;;;;;5096321;28;20190;-71
2022/03/08 00:34:04;;;;;;;10.20;7.57;;;0.30;99.90;;;;;;5094286;28;20254;-71
2022/03/08 00:36:31;;;;;;;8.00;6.97;;;0.30;99.90;;;;;;5076432;28;20428;-70
2022/03/08 00:38:57;;;;;;;9.35;6.82;;;0.30;99.90;;;;;;5057454;28;20635;-65
2022/03/08 00:41:23;;;;;;;6.87;6.03;;;0.30;99.90;;;;;;5076443;28;20197;-72
2022/03/08 00:43:49;;;;;;;8.25;7.45;;;0.20;99.90;;;;;;5075889;28;20423;-64
2022/03/08 00:46:15;;;;;;;10.77;6.57;;;0.30;99.90;;;;;;5076815;28;20542;-71
2022/03/08 00:48:41;;;;;;;9.50;6.97;;;0.20;99.90;;;;;;5076317;28;20685;-64
2022/03/08 00:51:07;;;;;;;7.78;6.95;;;0.20;99.90;;;;;;5078047;28;20675;-72
2022/03/08 00:53:33;;;;;;;8.00;5.87;;;0.20;99.90;;;;;;5076138;28;20300;-72
2022/03/08 00:55:59;;;;;;;5.95;5.35;;;0.20;99.90;;;;;;5091066;28;20444;-64
2022/03/08 00:58:25;;;;;;;6.93;5.50;;;0.20;99.90;;;;;;5096080;28;20212;-71
2022/03/08 01:00:50;;;;;;;7.83;7.13;;;0.10;99.90;;;;;;5084535;28;20328;-65
2022/03/08 01:03:16;;;;;;;8.27;7.47;;;0.10;99.90;;;;;;5092924;28;20235;-64
2022/03/08 01:05:42;;;;;;;7.33;6.27;;;0.10;99.90;;;;;;5092380;28;20193;-71
2022/03/08 01:08:07;;;;;;;7.73;6.70;;;0.10;99.90;;;;;;5075871;28;20177;-64
2022/03/08 01:10:33;;;;;;;8.17;6.23;;;0.10;99.90;;;;;;5076522;28;20312;-64
2022/03/08 01:12:59;;;;;;;6.30;5.80;;;0.10;99.90;;;;;;5095797;28;20231;-64
2022/03/08 01:15:26;;;;;;;8.27;6.60;;;0.10;99.90;;;;;;5095358;28;20687;-65
2022/03/08 01:17:53;;;;;;;9.80;6.40;;;0.10;99.90;;;;;;5075724;28;20205;-72
2022/03/08 01:20:19;;;;;;;6.38;5.78;;;0.10;99.90;;;;;;5074094;28;20188;-71
2022/03/08 01:22:45;;;;;;;8.02;7.28;;;0.00;99.90;;;;;;5092344;28;20193;-64
2022/03/08 01:25:14;;;;;;;7.00;6.40;;;0.00;99.90;;;;;;5094140;28;20197;-70
2022/03/08 01:27:41;;;;;;;7.85;6.30;;;0.00;99.90;;;;;;5075324;28;20428;-64
2022/03/08 01:30:10;;;;;;;11.77;6.50;;;-0.10;99.90;;;;;;5055649;28;20243;-65
2022/03/08 01:32:36;;;;;;;8.35;7.45;;;-0.20;99.90;;;;;;5057526;28;20194;-71
2022/03/08 01:35:02;;;;;;;7.50;6.90;;;-0.30;99.90;;;;;;5075387;28;20697;-65
2022/03/08 01:37:28;;;;;;;11.20;5.93;;;-0.30;99.90;;;;;;5092916;28;20427;-71
2022/03/08 01:39:54;;;;;;;8.90;6.00;;;-0.30;99.90;;;;;;5092124;28;20184;-65
2022/03/08 01:42:23;;;;;;;10.40;5.60;;;-0.20;99.90;;;;;;5075097;28;20660;-70
2022/03/08 01:44:49;;;;;;;9.45;5.80;;;-0.20;99.90;;;;;;5084403;28;20209;-70
2022/03/08 01:47:17;;;;;;;6.82;6.30;;;-0.20;99.90;;;;;;5095400;28;20563;-63
2022/03/08 01:49:44;;;;;;;6.93;5.30;;;-0.20;99.90;;;;;;5077669;28;20190;-69
2022/03/08 01:52:10;;;;;;;13.25;7.80;;;-0.20;99.90;;;;;;5074850;28;20186;-66
2022/03/08 01:54:37;;;;;;;5.72;4.78;;;-0.20;1.00;;;;;;5088604;28;20226;-71
2022/03/08 01:57:04;;;;;;;6.43;5.78;;;-0.20;1.00;;;;;;5093362;28;20185;-71
2022/03/08 01:59:30;;;;;;;6.70;6.20;;;-0.20;1.00;;;;;;5080765;28;20228;-64
2022/03/08 02:01:56;;;;;;;5.80;5.25;;;-0.10;1.00;;;;;;5074769;28;20194;-71
2022/03/08 02:04:22;;;;;;;5.10;4.70;;;-0.10;1.00;;;;;;5085586;28;20259;-71
2022/03/08 02:06:48;;;;;;;6.47;5.03;;;-0.10;1.00;;;;;;5094828;28;20427;-64
2022/03/08 02:09:14;;;;;;;5.18;4.75;;;-0.20;1.00;;;;;;5084342;28;20170;-64
2022/03/08 02:11:40;;;;;;;6.27;5.77;;;-0.20;1.00;;;;;;5091666;28;20250;-69
2022/03/08 02:14:06;;;;;;;5.45;4.88;;;-0.10;1.00;;;;;;5093868;28;20494;-64
2022/03/08 02:16:32;;;;;;;5.30;4.90;;;-0.20;1.00;;;;;;5075131;28;20268;-64
2022/03/08 02:18:58;;;;;;;5.25;4.75;;;-0.10;1.00;;;;;;5093839;28;20165;-71
2022/03/08 02:21:25;;;;;;;4.87;4.40;;;-0.10;1.00;;;;;;5069856;28;20689;-71
2022/03/08 02:23:51;;;;;;;4.70;4.18;;;-0.20;1.00;;;;;;5074073;28;20159;-64
2022/03/08 02:26:18;;;;;;;7.50;5.60;;;-0.20;1.00;;;;;;5076965;28;20192;-71
2022/03/08 02:28:44;;;;;;;6.03;5.28;;;-0.20;1.00;;;;;;5093675;28;20488;-64
2022/03/08 02:31:10;;;;;;;5.15;4.35;;;-0.20;1.00;;;;;;5092050;28;20182;-64
2022/03/08 02:33:35;;;;;;;6.17;5.50;;;-0.20;1.00;;;;;;5075165;28;20627;-64
2022/03/08 02:36:01;;;;;;;5.20;4.57;;;-0.20;1.00;;;;;;5074807;28;20177;-71
2022/03/08 02:38:27;;;;;;;8.50;4.80;;;-0.20;1.00;;;;;;5075272;28;20526;-64
2022/03/08 02:40:53;;;;;;;4.43;4.17;;;-0.20;1.00;;;;;;5073065;28;20197;-71
2022/03/08 02:43:19;;;;;;;5.00;4.55;;;-0.20;1.00;;;;;;5074051;28;20174;-69
2022/03/08 02:45:45;;;;;;;4.90;4.40;;;-0.20;1.00;;;;;;5073441;28;20194;-70
2022/03/08 02:48:11;;;;;;;5.50;5.00;;;-0.20;1.00;;;;;;5091659;28;20201;-64
2022/03/08 02:50:37;;;;;;;5.80;4.78;;;-0.20;1.00;;;;;;5093027;28;20584;-64
2022/03/08 02:53:04;;;;;;;10.23;4.77;;;-0.20;1.00;;;;;;5075254;28;20182;-71
2022/03/08 02:55:32;;;;;;;4.60;4.18;;;-0.20;1.00;;;;;;5073901;28;20396;-70
2022/03/08 02:57:58;;;;;;;4.85;4.50;;;-0.20;1.00;;;;;;5093650;28;20174;-71
2022/03/08 03:00:25;;;;;;;5.55;3.83;;;-0.20;1.00;;;;;;5093094;28;20174;-71
2022/03/08 03:02:51;;;;;;;4.68;4.00;;;-0.20;1.00;;;;;;5084572;28;20292;-71
2022/03/08 03:05:17;;;;;;;4.20;3.80;;;-0.20;1.00;;;;;;5093962;28;20197;-71
2022/03/08 03:07:43;;;;;;;6.53;5.27;;;-0.20;1.00;;;;;;5075167;28;20647;-64
2022/03/08 03:10:12;;;;;;;3.90;3.60;;;-0.20;1.00;;;;;;5054906;28;20419;-70
2022/03/08 03:12:38;;;;;;;4.72;4.32;;;-0.20;1.00;;;;;;5089567;28;20205;-70
2022/03/08 03:15:06;;;;;;;4.20;3.80;;;-0.20;1.00;;;;;;5093805;28;20173;-66
2022/03/08 03:17:32;;;;;;;4.93;4.63;;;-0.20;1.00;;;;;;5074475;28;20190;-71
2022/03/08 03:19:58;;;;;;;5.10;4.60;;;-0.20;1.00;;;;;;5089801;28;20210;-65
2022/03/08 03:22:23;;;;;;;11.30;3.90;;;-0.30;1.00;;;;;;5075747;28;20252;-65
2022/03/08 03:24:49;;;;;;;5.63;5.23;;;-0.30;1.00;;;;;;5073011;28;20197;-64
2022/03/08 03:27:15;;;;;;;4.90;4.50;;;-0.30;1.00;;;;;;5074434;28;20202;-64
2022/03/08 03:29:40;;;;;;;4.30;4.00;;;-0.30;1.00;;;;;;5054495;28;20216;-71
2022/03/08 03:32:06;;;;;;;5.23;4.83;;;-0.30;1.00;;;;;;5086056;28;20190;-65
2022/03/08 03:34:32;;;;;;;5.28;4.13;;;-0.30;1.00;;;;;;5074989;28;20576;-68
2022/03/08 03:36:58;;;;;;;4.53;4.03;;;-0.30;1.00;;;;;;5084370;28;20181;-64
2022/03/08 03:39:23;;;;;;;4.50;4.07;;;-0.30;1.00;;;;;;5092004;28;20265;-71
2022/03/08 03:41:49;;;;;;;4.40;4.10;;;-0.30;1.00;;;;;;5083685;28;20206;-64
2022/03/08 03:44:15;;;;;;;6.00;4.83;;;-0.30;1.00;;;;;;5078248;28;20189;-64
2022/03/08 03:46:41;;;;;;;4.80;3.93;;;-0.30;1.00;;;;;;5093240;28;20888;-65
2022/03/08 03:49:06;;;;;;;4.17;3.87;;;-0.30;1.00;;;;;;5088856;28;20242;-71
2022/03/08 03:51:32;;;;;;;4.90;4.60;;;-0.30;1.00;;;;;;5074062;28;20455;-64
2022/03/08 03:53:58;;;;;;;4.27;3.70;;;-0.40;1.00;;;;;;5077672;28;20185;-70
2022/03/08 03:56:23;;;;;;;4.73;4.33;;;-0.30;1.00;;;;;;5058353;28;20201;-65
2022/03/08 03:58:49;;;;;;;6.90;4.17;;;-0.40;1.00;;;;;;5076333;28;20241;-64
2022/03/08 04:01:15;;;;;;;4.57;4.20;;;-0.40;1.00;;;;;;5077207;28;20194;-70
2022/03/08 04:03:41;;;;;;;5.70;3.60;;;-0.50;1.00;;;;;;5077118;28;20389;-71
2022/03/08 04:06:07;;;;;;;10.23;4.20;;;-0.50;1.00;;;;;;5094895;28;20904;-71
2022/03/08 04:08:34;;;;;;;4.25;4.00;;;-0.50;1.00;;;;;;5094416;28;20479;-71
2022/03/08 04:10:59;;;;;;;5.07;3.97;;;-0.50;1.00;;;;;;5080258;28;20205;-70
2022/03/08 04:13:25;;;;;;;3.90;3.60;;;-0.60;1.00;;;;;;5076159;28;20174;-70
2022/03/08 04:15:52;;;;;;;4.53;4.13;;;-0.60;1.00;;;;;;5091014;28;20230;-70
2022/03/08 04:18:18;;;;;;;5.82;4.20;;;-0.60;1.00;;;;;;5097018;28;20548;-64
2022/03/08 04:20:45;;;;;;;5.90;4.57;;;-0.60;1.00;;;;;;5093011;28;20177;-71
2022/03/08 04:23:11;;;;;;;5.60;4.85;;;-0.70;1.00;;;;;;5096814;28;20183;-64
2022/03/08 04:25:36;;;;;;;3.80;3.60;;;-0.60;1.00;;;;;;5085541;28;20209;-71
2022/03/08 04:28:05;;;;;;;4.80;4.40;;;-0.70;1.00;;;;;;5096837;28;20422;-71
2022/03/08 04:30:31;;;;;;;4.95;4.55;;;-0.70;1.00;;;;;;5079982;28;20261;-64
2022/03/08 04:32:57;;;;;;;5.22;4.53;;;-0.70;1.00;;;;;;5075744;28;20229;-68
2022/03/08 04:35:24;;;;;;;4.85;4.55;;;-0.60;1.00;;;;;;5082503;28;20605;-71
2022/03/08 04:37:50;;;;;;;4.50;3.92;;;-0.70;1.00;;;;;;5076407;28;20180;-64
2022/03/08 04:40:16;;;;;;;7.80;4.43;;;-0.70;1.00;;;;;;5087076;28;20212;-70
2022/03/08 04:42:42;;;;;;;5.68;5.00;;;-0.70;1.00;;;;;;5096539;28;20235;-64
2022/03/08 04:45:10;;;;;;;5.50;4.70;;;-0.70;1.00;;;;;;5068061;28;20858;-71
2022/03/08 04:47:37;;;;;;;5.20;4.10;;;-0.70;1.00;;;;;;5076267;28;20166;-71
2022/03/08 04:50:04;;;;;;;4.07;3.78;;;-0.60;1.00;;;;;;5063740;28;20213;-64
2022/03/08 04:52:30;;;;;;;4.25;4.03;;;-0.60;1.00;;;;;;5075554;28;20285;-70
2022/03/08 04:54:56;;;;;;;5.23;4.73;;;-0.60;1.00;;;;;;5089172;28;20209;-64
2022/03/08 04:57:21;;;;;;;5.10;4.60;;;-0.60;1.00;;;;;;5096440;28;20568;-64
2022/03/08 04:59:47;;;;;;;3.77;3.57;;;-0.60;1.00;;;;;;5087097;28;20177;-64
2022/03/08 05:02:13;;;;;;;6.37;4.37;;;-0.60;1.00;;;;;;5091054;28;20193;-64
2022/03/08 05:04:38;;;;;;;10.97;4.77;;;-0.60;1.00;;;;;;5077807;28;20211;-65
2022/03/08 05:07:04;;;;;;;4.77;4.37;;;-0.60;1.00;;;;;;5093511;28;20174;-64
2022/03/08 05:09:30;;;;;;;4.20;3.90;;;-0.60;1.00;;;;;;5094592;28;20169;-70
2022/03/08 05:11:55;;;;;;;5.27;4.30;;;-0.60;1.00;;;;;;5083149;28;20197;-64
2022/03/08 05:14:21;;;;;;;4.43;4.03;;;-0.60;1.00;;;;;;5084915;28;20174;-64
2022/03/08 05:16:47;;;;;;;5.07;4.57;;;-0.60;1.00;;;;;;5095783;28;20244;-71
2022/03/08 05:19:12;;;;;;;4.53;3.87;;;-0.60;1.00;;;;;;5086504;28;20220;-64
2022/03/08 05:21:38;;;;;;;7.47;5.60;;;-0.60;1.00;;;;;;5075601;28;20193;-64
2022/03/08 05:24:04;;;;;;;6.13;4.90;;;-0.60;1.00;;;;;;5082412;28;20196;-71
2022/03/08 05:26:30;;;;;;;5.00;4.20;;;-0.60;1.00;;;;;;5095441;28;20569;-71
2022/03/08 05:28:55;;;;;;;5.00;4.00;;;-0.60;1.00;;;;;;5071632;28;20170;-70
2022/03/08 05:31:21;;;;;;;9.03;6.40;;;-0.60;1.00;;;;;;5075198;28;20186;-64
2022/03/08 05:33:46;;;;;;;6.53;5.20;;;-0.60;1.00;;;;;;5077395;28;20175;-70
2022/03/08 05:36:12;;;;;;;5.57;5.17;;;-0.60;1.00;;;;;;5077368;28;20223;-70
2022/03/08 05:38:38;;;;;;;4.63;4.20;;;-0.60;1.00;;;;;;5093740;28;20162;-71
2022/03/08 05:41:03;;;;;;;11.37;6.87;;;-0.60;1.00;;;;;;5089169;28;20730;-72
2022/03/08 05:43:29;;;;;;;8.93;5.80;;;-0.60;1.00;;;;;;5087085;28;20167;-71
2022/03/08 05:45:55;;;;;;;13.70;6.00;;;-0.60;1.00;;;;;;5075419;28;20206;-64
2022/03/08 05:48:20;;;;;;;8.53;4.43;;;-0.60;1.00;;;;;;5080229;28;20193;-71
2022/03/08 05:50:46;;;;;;;4.70;4.30;;;-0.50;1.00;;;;;;5094309;28;20188;-64
2022/03/08 05:53:12;;;;;;;5.00;4.50;;;-0.50;1.00;;;;;;5090545;28;20171;-65
2022/03/08 05:55:37;;;;;;;5.60;5.17;;;-0.50;1.00;;;;;;5075215;28;20186;-64
2022/03/08 05:58:03;;;;;;;5.20;4.70;;;-0.60;1.00;;;;;;5092212;28;20245;-70
2022/03/08 06:00:29;;;;;;;8.20;5.37;;;-0.50;1.00;;;;;;5073983;28;20158;-71
2022/03/08 06:02:54;;;;;;;5.50;5.00;;;-0.50;1.00;;;;;;5075371;28;20190;-71
2022/03/08 06:05:22;;;;;;;8.23;6.10;;;-0.50;1.00;;;;;;5094910;28;20255;-65
2022/03/08 06:07:48;;;;;;;14.98;8.25;;;-0.50;1.00;;;;;;5090758;28;20507;-72
2022/03/08 06:10:14;;;;;;;14.23;7.27;;;-0.50;1.00;;;;;;5073703;28;20191;-67
2022/03/08 06:12:41;;;;;;;6.45;4.60;;;-0.60;1.00;;;;;;5076555;28;20186;-71
2022/03/08 06:15:08;;;;;;;5.07;4.50;;;-0.50;1.00;;;;;;5094178;28;20260;-64
2022/03/08 06:17:34;;;;;;;9.93;6.57;;;-0.60;1.00;;;;;;5094248;28;20165;-65
2022/03/08 06:20:03;;;;;;;9.50;5.90;;;-0.50;1.00;;;;;;5073466;28;20581;-64
2022/03/08 06:22:28;;;;;;;6.10;5.50;;;-0.50;1.00;;;;;;5076556;28;20502;-64
2022/03/08 06:24:54;;;;;;;13.67;5.03;;;-0.50;1.00;;;;;;5094252;28;20666;-64
2022/03/08 06:27:20;;;;;;;5.87;5.37;;;-0.50;1.00;;;;;;5092590;28;20160;-64
2022/03/08 06:29:45;;;;;;;11.40;5.00;;;-0.50;1.00;;;;;;5074326;28;20178;-71
2022/03/08 06:32:11;;;;;;;6.30;5.23;;;-0.50;1.00;;;;;;5074249;28;20240;-64
2022/03/08 06:34:37;;;;;;;8.03;5.07;;;-0.50;1.00;;;;;;5093326;28;20258;-64
2022/03/08 06:37:03;;;;;;;8.17;7.00;;;-0.50;1.00;;;;;;5094370;28;20404;-71
2022/03/08 06:39:29;;;;;;;5.30;4.90;;;-0.50;1.00;;;;;;5075428;28;20178;-72
2022/03/08 06:41:55;;;;;;;5.38;4.60;;;-0.40;1.00;;;;;;5073862;28;20428;-65
2022/03/08 06:44:21;;;;;;;10.83;6.00;;;-0.40;1.00;;;;;;5089924;28;20264;-71
2022/03/08 06:46:47;;;;;;;8.10;5.70;;;-0.50;1.00;;;;;;5091306;28;20450;-71
2022/03/08 06:49:13;;;;;;;7.63;6.90;;;-0.40;1.00;;;;;;5078688;28;20504;-65
2022/03/08 06:51:39;;;;;;;6.68;6.07;;;-0.40;1.00;;;;;;5089435;28;20214;-65
2022/03/08 06:54:06;;;;;;;5.10;4.70;;;-0.40;1.00;;;;;;5085708;28;20181;-70
2022/03/08 06:56:33;;;;;;;8.10;5.32;;;-0.30;1.00;;;;;;5094085;28;20264;-64
2022/03/08 06:59:03;;;;;;;7.80;5.70;;;-0.30;1.00;;;;;;5092317;28;20173;-70
2022/03/08 07:01:28;;;;;;;7.32;6.57;;;-0.20;1.00;;;;;;5093655;28;20189;-69
2022/03/08 07:03:54;;;;;;;6.93;5.00;;;-0.20;1.00;;;;;;5082869;28;20712;-65
2022/03/08 07:06:20;;;;;;;5.80;5.07;;;-0.10;1.00;;;;;;5073664;28;20169;-70
2022/03/08 07:08:46;;;;;;;8.33;5.80;;;-0.10;1.00;;;;;;5075316;28;20198;-71
2022/03/08 07:11:11;;;;;;;6.67;6.20;;;-0.10;1.00;;;;;;5073504;28;20655;-64
2022/03/08 07:13:37;;;;;;;7.20;5.97;;;0.00;1.00;;;;;;5079896;28;20173;-71
2022/03/08 07:16:03;;;;;;;6.07;5.50;;;0.00;1.00;;;;;;5093599;28;20169;-64
2022/03/08 07:18:29;;;;;;;6.18;5.57;;;0.10;1.00;;;;;;5083528;28;20176;-71
2022/03/08 07:20:54;;;;;;;5.30;4.80;;;0.10;1.00;;;;;;5093067;28;20173;-72
2022/03/08 07:23:20;;;;;;;6.73;6.13;;;0.20;1.00;;;;;;5068281;28;20213;-72
2022/03/08 07:25:46;;;;;;;6.97;6.37;;;0.20;1.00;;;;;;5073331;28;20197;-66
2022/03/08 07:28:12;;;;;;;5.70;5.20;;;0.30;1.00;;;;;;5078083;28;20873;-65
2022/03/08 07:30:38;;;;;;;6.82;5.57;;;0.30;1.00;;;;;;5092515;28;20605;-71
2022/03/08 07:33:04;;;;;;;7.78;4.40;;;0.40;1.00;;;;;;5081651;28;20211;-72
2022/03/08 07:35:29;;;;;;;5.40;5.00;;;0.50;1.00;;;;;;5092877;28;20630;-65
2022/03/08 07:37:55;;;;;;;5.23;4.87;;;0.50;1.00;;;;;;5087676;28;20249;-72
2022/03/08 07:40:21;;;;;;;6.30;5.43;;;0.60;1.00;;;;;;5072247;28;20166;-73
2022/03/08 07:42:47;;;;;;;6.43;5.10;;;0.70;1.00;;;;;;5084875;28;20586;-65
2022/03/08 07:45:12;;;;;;;7.63;5.33;;;0.90;1.00;;;;;;5093299;28;20280;-67
2022/03/08 07:47:38;;;;;;;7.03;5.73;;;1.10;1.00;;;;;;5091851;28;20210;-65
2022/03/08 07:50:05;;;;;;;7.70;5.03;;;1.30;1.00;;;;;;5092247;28;20173;-71
2022/03/08 07:52:31;;;;;;;9.87;4.83;;;1.50;1.00;;;;;;5093021;28;20185;-65
2022/03/08 07:54:57;;;;;;;5.70;5.17;;;1.70;1.00;;;;;;5092813;28;20400;-66
2022/03/08 07:57:22;;;;;;;8.07;5.10;;;1.80;1.00;;;;;;5093072;28;20388;-72
2022/03/08 07:59:48;;;;;;;6.93;5.70;;;2.00;1.00;;;;;;5074628;28;20694;-65
2022/03/08 08:02:14;;;;;;;4.83;4.40;;;2.20;1.00;;;;;;5090843;28;20670;-72
2022/03/08 08:04:39;;;;;;;5.67;5.00;;;2.40;1.00;;;;;;5072940;28;20189;-72
2022/03/08 08:07:05;;;;;;;5.57;3.77;;;2.60;1.00;;;;;;5073098;28;20239;-65
2022/03/08 08:09:31;;;;;;;6.43;4.60;;;2.70;1.00;;;;;;5072277;28;20171;-64
2022/03/08 08:11:57;;;;;;;4.63;4.33;;;2.90;1.00;;;;;;5072923;28;20842;-72
2022/03/08 08:14:22;;;;;;;4.60;4.20;;;3.10;1.00;;;;;;5054854;28;20573;-66
2022/03/08 08:16:48;;;;;;;4.90;4.50;;;3.30;1.00;;;;;;5072300;28;20190;-64
2022/03/08 08:19:13;;;;;;;7.90;4.43;;;3.40;99.90;;;;;;5073033;28;20185;-71
2022/03/08 08:21:39;;;;;;;3.83;3.63;;;3.60;99.90;;;;;;5072809;28;20198;-64
2022/03/08 08:24:05;;;;;;;3.90;3.60;;;3.70;99.90;;;;;;5072764;28;20170;-64
2022/03/08 08:26:31;;;;;;;3.97;3.60;;;3.90;99.90;;;;;;5054431;28;20175;-66
2022/03/08 08:28:57;;;;;;;7.20;4.83;;;4.10;99.90;;;;;;5072129;28;20411;-70
2022/03/08 08:31:23;;;;;;;4.07;3.77;;;4.30;99.90;;;;;;5073847;28;20243;-70
2022/03/08 08:33:50;;;;;;;4.83;4.43;;;4.50;99.90;;;;;;5071981;28;20194;-70
2022/03/08 08:36:16;;;;;;;5.70;3.70;;;4.60;99.90;;;;;;5074224;28;20416;-73
2022/03/08 08:38:42;;;;;;;5.30;4.30;;;4.70;99.90;;;;;;5072770;28;20832;-63
2022/03/08 08:41:07;;;;;;;6.20;4.20;;;4.80;99.90;;;;;;5079195;28;20449;-74
2022/03/08 08:43:33;;;;;;;6.03;4.13;;;5.00;99.90;;;;;;5094196;28;20185;-74
2022/03/08 08:45:58;;;;;;;10.63;5.70;;;5.30;99.90;;;;;;5095687;28;20658;-74
2022/03/08 08:48:24;;;;;;;7.33;4.97;;;5.30;99.90;;;;;;5095896;28;20244;-75
2022/03/08 08:50:50;;;;;;;7.10;5.17;;;5.50;99.90;;;;;;5089821;28;20255;-67
2022/03/08 08:53:16;;;;;;;7.65;5.13;;;5.70;99.90;;;;;;5076138;28;20461;-66
2022/03/08 08:55:43;;;;;;;7.17;3.00;;;5.70;99.90;;;;;;5079533;28;20219;-70
2022/03/08 08:58:09;;;;;;;8.53;3.40;;;5.80;99.90;;;;;;5076146;28;20288;-74
2022/03/08 09:00:35;;;;;;;2.90;2.70;;;5.90;99.90;;;;;;5077971;28;20524;-68
2022/03/08 09:03:01;;;;;;;2.80;2.70;;;6.00;99.90;;;;;;5096108;28;20246;-68
2022/03/08 09:05:27;;;;;;;2.93;2.63;;;6.20;99.90;;;;;;5096145;28;20439;-66
2022/03/08 09:07:53;;;;;;;2.30;2.20;;;6.30;99.90;;;;;;5076557;28;20427;-74
2022/03/08 09:10:22;;;;;;;3.33;3.03;;;6.50;99.90;;;;;;5095209;28;20399;-69
2022/03/08 09:12:51;;;;;;;3.60;2.83;;;6.60;99.90;;;;;;5090801;28;20447;-72
2022/03/08 09:15:20;;;;;;;5.45;2.08;;;6.70;99.90;;;;;;5074857;28;20410;-70
2022/03/08 09:17:46;;;;;;;2.60;2.40;;;6.90;99.90;;;;;;5077700;28;20170;-64
2022/03/08 09:20:12;;;;;;;3.00;2.80;;;7.10;99.90;;;;;;5094967;28;20461;-70
2022/03/08 09:22:39;;;;;;;2.40;2.30;;;7.40;99.90;;;;;;5094954;28;20431;-70
2022/03/08 09:25:05;;;;;;;3.10;2.13;;;7.80;99.90;;;;;;5075395;28;20444;-65
2022/03/08 09:27:30;;;;;;;3.43;3.13;;;8.20;99.90;;;;;;5077218;28;20423;-65
2022/03/08 09:29:57;;;;;;;2.40;2.20;;;8.60;99.90;;;;;;5076319;28;20868;-65
2022/03/08 09:32:23;;;;;;;3.30;3.07;;;8.60;99.90;;;;;;5057278;28;20662;-72
2022/03/08 09:34:48;;;;;;;3.93;2.40;;;8.70;99.90;;;;;;5075268;28;20401;-72
2022/03/08 09:37:14;;;;;;;3.27;2.40;;;8.80;99.90;;;;;;5075235;28;20778;-65
2022/03/08 09:39:40;;;;;;;3.13;2.93;;;9.00;99.90;;;;;;5074526;28;20163;-65
2022/03/08 09:42:06;;;;;;;2.60;2.50;;;9.30;99.90;;;;;;5057514;28;20433;-72
2022/03/08 09:44:32;;;;;;;5.03;3.13;;;9.60;99.90;;;;;;5075037;28;20299;-72
2022/03/08 09:46:57;;;;;;;4.50;2.97;;;9.80;99.90;;;;;;5090715;28;20268;-72
2022/03/08 09:49:23;;;;;;;3.00;2.80;;;10.10;99.90;;;;;;5093949;28;20468;-65
2022/03/08 09:51:52;;;;;;;2.63;2.40;;;10.40;99.90;;;;;;5094499;28;20258;-65
2022/03/08 09:54:17;;;;;;;3.90;2.30;;;10.40;99.90;;;;;;5095535;28;20168;-73
2022/03/08 09:56:43;;;;;;;3.37;2.70;;;10.50;99.90;;;;;;5095193;28;20887;-65
2022/03/08 09:59:08;;;;;;;3.80;2.83;;;10.70;99.90;;;;;;5094241;28;20630;-66
2022/03/08 10:01:34;;;;;;;3.37;2.97;;;10.80;99.90;;;;;;5094608;28;20197;-70
2022/03/08 10:04:01;;;;;;;8.20;2.40;;;10.80;99.90;;;;;;5092900;28;20189;-65
2022/03/08 10:06:39;;;;;;;2.23;2.07;;;10.80;99.90;;;;;;5095222;28;20172;-65
2022/03/08 10:09:16;;;;;;;2.43;2.23;;;10.90;99.90;;;;;;5094025;28;20479;-73
2022/03/08 10:11:43;;;;;;;3.03;2.77;;;10.80;99.90;;;;;;5094838;28;20484;-72
2022/03/08 10:14:26;;;;;;;2.80;2.37;;;10.50;99.90;;;;;;5094876;28;20914;-66
2022/03/08 10:16:52;;;;;;;2.87;2.17;;;10.30;99.90;;;;;;5094971;28;20362;-72
2022/03/08 10:19:18;;;;;;;2.30;2.10;;;10.60;99.90;;;;;;5073917;28;20771;-66
2022/03/08 10:21:47;;;;;;;3.63;2.73;;;10.90;99.90;;;;;;5094426;28;20423;-65
2022/03/08 10:24:17;;;;;;;2.90;2.70;;;11.30;99.90;;;;;;5093997;28;20637;-72
2022/03/08 10:26:46;;;;;;;3.43;2.73;;;11.40;99.90;;;;;;5094614;28;20890;-73
2022/03/08 10:29:12;;;;;;;3.37;2.60;;;11.80;99.90;;;;;;5093589;28;20480;-73
2022/03/08 10:31:38;;;;;;;3.00;2.63;;;12.20;99.90;;;;;;5094324;28;20415;-73
2022/03/08 10:34:07;;;;;;;3.83;3.07;;;12.50;99.90;;;;;;5094615;28;20400;-73
2022/03/08 10:36:35;;;;;;;4.17;2.93;;;13.00;99.90;;;;;;5084238;28;20167;-65
2022/03/08 10:39:15;;;;;;;3.40;2.70;;;13.40;99.90;;;;;;5072910;28;20401;-73
2022/03/08 10:41:54;;;;;;;3.13;2.90;;;13.80;99.90;;;;;;5073598;28;20412;-73
2022/03/08 10:44:41;;;;;;;2.80;2.60;;;13.70;99.90;;;;;;5073872;28;20474;-74
2022/03/08 10:47:07;;;;;;;2.60;2.40;;;13.60;99.90;;;;;;5073899;28;20395;-74
2022/03/08 10:49:34;;;;;;;3.00;2.80;;;13.90;99.90;;;;;;5072937;28;20396;-71
2022/03/08 10:52:02;;;;;;;2.63;2.43;;;14.00;99.90;;;;;;5074723;28;20258;-74
2022/03/08 10:54:30;;;;;;;2.60;2.40;;;14.20;99.90;;;;;;5074048;28;20378;-65
2022/03/08 10:56:56;;;;;;;3.83;2.30;;;14.60;99.90;;;;;;5073150;28;20742;-73
2022/03/08 10:59:22;;;;;;;4.80;2.50;;;14.80;99.90;;;;;;5072822;28;20797;-74
2022/03/08 11:01:48;;;;;;;2.20;2.10;;;14.70;99.90;;;;;;5073471;28;20509;-66
2022/03/08 11:04:21;;;;;;;6.47;2.37;;;14.60;99.90;;;;;;5073703;28;20670;-66
2022/03/08 11:06:50;;;;;;;2.93;2.70;;;14.10;99.90;;;;;;5073541;28;20165;-65
2022/03/08 11:09:17;;;;;;;2.73;2.53;;;13.90;99.80;;;;;;5082821;28;20412;-65
2022/03/08 11:11:43;;;;;;;2.00;1.80;;;13.40;97.20;;;;;;5093753;28;20900;-76
2022/03/08 11:14:10;;;;;;;2.80;2.13;;;13.10;94.50;;;;;;5093858;28;20529;-65
2022/03/08 11:16:36;;;;;;;2.63;2.43;;;12.80;93.10;;;;;;5093096;28;20527;-74
2022/03/08 11:19:02;;;;;;;2.80;2.60;;;12.60;94.10;;;;;;5092909;28;20389;-66
2022/03/08 11:21:29;;;;;;;3.63;3.13;;;12.10;93.90;;;;;;5093439;28;20418;-70
2022/03/08 11:23:56;;;;;;;2.80;2.60;;;11.80;92.70;;;;;;5093628;28;20392;-74
2022/03/08 11:26:26;;;;;;;4.50;2.97;;;11.50;92.60;;;;;;5080746;28;20911;-65
2022/03/08 11:28:53;;;;;;;4.17;3.87;;;11.30;92.50;;;;;;5072616;28;20734;-66
2022/03/08 11:31:24;;;;;;;3.13;2.90;;;11.10;92.40;;;;;;5073226;28;20749;-73
2022/03/08 11:34:04;;;;;;;3.17;2.83;;;11.10;92.40;;;;;;5083534;28;20402;-66
2022/03/08 11:36:38;;;;;;;4.40;4.00;;;11.20;92.50;;;;;;5093583;28;20378;-65
2022/03/08 11:39:14;;;;;;;3.73;3.43;;;11.10;92.50;;;;;;5091720;28;20410;-66
2022/03/08 11:41:40;;;;;;;3.37;3.17;;;11.10;92.40;;;;;;5091633;28;20431;-65
2022/03/08 11:44:06;;;;;;;3.50;3.00;;;11.30;92.50;;;;;;5093263;28;20384;-66
2022/03/08 11:46:32;;;;;;;3.07;2.87;;;11.30;92.50;;;;;;5093762;28;20400;-65
2022/03/08 11:49:03;;;;;;;3.33;3.03;;;11.50;92.60;;;;;;5092570;28;20510;-74
2022/03/08 11:51:30;;;;;;;3.00;2.73;;;11.70;92.70;;;;;;5093304;28;20211;-73
2022/03/08 11:54:08;;;;;;;2.97;2.67;;;11.90;92.70;;;;;;5093347;28;20395;-66
2022/03/08 11:56:44;;;;;;;3.30;3.00;;;12.10;92.80;;;;;;5092682;28;20410;-66
2022/03/08 11:59:10;;;;;;;4.57;2.63;;;12.40;92.90;;;;;;5081369;28;20434;-73
2022/03/08 12:01:37;;;;;;;3.20;2.83;;;12.60;93.00;;;;;;5073118;28;20526;-65
2022/03/08 12:04:11;;;;;;;4.73;3.50;;;12.50;93.00;;;;;;5073095;28;20393;-73
2022/03/08 12:06:39;;;;;;;5.13;2.80;;;12.60;93.00;;;;;;5055131;28;20431;-66
2022/03/08 12:09:12;;;;;;;3.37;2.80;;;12.60;93.00;;;;;;5072388;28;20396;-73
2022/03/08 12:11:58;;;;;;;3.40;3.20;;;12.40;93.00;;;;;;5073075;28;20395;-73
2022/03/08 12:14:28;;;;;;;4.13;3.00;;;12.20;92.80;;;;;;5076384;28;20470;-65
2022/03/08 12:17:06;;;;;;;2.77;2.57;;;12.30;92.90;;;;;;5096347;28;20385;-65
2022/03/08 12:19:35;;;;;;;3.10;2.90;;;12.50;92.90;;;;;;5096211;28;20424;-68
2022/03/08 12:22:02;;;;;;;2.27;2.17;;;12.80;93.10;;;;;;5096922;28;20394;-70
2022/03/08 12:24:43;;;;;;;3.13;2.80;;;13.30;93.30;;;;;;5096852;28;20475;-65
2022/03/08 12:27:09;;;;;;;3.00;2.60;;;13.60;93.40;;;;;;5096959;28;20419;-74
2022/03/08 12:29:56;;;;;;;4.60;2.60;;;14.00;93.50;;;;;;5095929;28;20374;-66
2022/03/08 12:32:33;;;;;;;2.37;2.17;;;14.60;93.80;;;;;;5094846;28;20431;-73
2022/03/08 12:35:05;;;;;;;2.90;2.70;;;15.00;93.90;;;;;;5096001;28;20403;-65
2022/03/08 12:38:03;;;;;;;2.37;2.27;;;15.90;94.20;;;;;;5096703;28;20399;-65
2022/03/08 12:40:37;;;;;;;2.60;2.40;;;16.60;94.50;;;;;;5094841;28;20423;-66
2022/03/08 12:43:06;;;;;;;3.23;3.00;;;17.30;94.70;;;;;;5096594;28;20396;-66
2022/03/08 12:45:37;;;;;;;2.33;2.13;;;18.00;95.00;;;;;;5096472;28;20537;-66
2022/03/08 12:48:17;;;;;;;2.83;2.53;;;18.60;93.40;;;;;;5094808;28;20427;-66
2022/03/08 12:50:52;;;;;;;3.23;2.93;;;18.70;86.20;;;;;;5095316;28;20419;-66
2022/03/08 12:53:27;;;;;;;2.90;2.40;;;19.10;85.90;;;;;;5095739;28;20403;-71